Данни от 05.12.2022 г. 17:02:59

Температура вътрешна: 18.3 °C
Температура външна: 9.3 °C
Атмосферно налягане: 1008.8 hPa
Атмосферно налягане на морско равнище: 1026.8 hPa
Влажност: 61.7 %



История от последните 24 часа

Дата и часTin [°C]P [hPa]Psl [hPa]H [%]Tout [°C]
   05.12.2022 г. 17:00:58      18.3      1008.7      1026.7      61.3      9.3   
   05.12.2022 г. 16:30:58      18.4      1008.7      1026.7      60.6      9.6   
   05.12.2022 г. 16:00:58      18.4      1008.8      1026.8      60.6      9.8   
   05.12.2022 г. 15:30:58      18.4      1008.8      1026.8      61.6      10.0   
   05.12.2022 г. 15:00:58      18.5      1009.0      1027.0      60.9      10.0   
   05.12.2022 г. 14:30:58      18.5      1009.2      1027.2      61.1      9.9   
   05.12.2022 г. 14:00:58      18.5      1009.4      1027.4      61.2      9.9   
   05.12.2022 г. 13:30:58      18.6      1009.7      1027.7      61.2      9.8   
   05.12.2022 г. 13:00:58      18.6      1009.7      1027.7      61.1      10.0   
   05.12.2022 г. 12:30:58      18.6      1009.8      1027.9      61.8      10.0   
   05.12.2022 г. 12:00:58      18.6      1010.0      1028.0      61.6      9.8   
   05.12.2022 г. 11:30:58      18.7      1010.6      1028.6      61.7      9.6   
   05.12.2022 г. 11:00:58      18.7      1010.9      1028.9      61.9      9.1   
   05.12.2022 г. 10:30:58      18.8      1011.0      1029.1      62.0      8.8   
   05.12.2022 г. 10:00:58      18.8      1011.1      1029.2      62.0      8.3   
   05.12.2022 г. 09:30:59      18.9      1010.8      1028.9      62.3      8.6   
   05.12.2022 г. 09:00:58      18.9      1010.7      1028.7      63.0      8.3   
   05.12.2022 г. 08:30:59      18.9      1010.5      1028.6      62.8      8.0   
   05.12.2022 г. 08:00:58      19.0      1010.5      1028.5      62.9      7.8   
   05.12.2022 г. 07:30:59      19.0      1010.3      1028.4      63.4      8.0   
   05.12.2022 г. 07:00:58      19.0      1010.2      1028.3      63.9      8.0   
   05.12.2022 г. 06:30:59      19.1      1010.2      1028.3      63.8      7.9   
   05.12.2022 г. 06:00:58      19.3      1010.2      1028.3      65.1      8.3   
   05.12.2022 г. 05:30:59      19.3      1010.1      1028.1      65.3      8.5   
   05.12.2022 г. 05:00:58      19.3      1010.2      1028.2      64.1      8.3   
   05.12.2022 г. 04:30:59      19.4      1010.0      1028.0      65.0      8.1   
   05.12.2022 г. 04:00:58      19.4      1010.2      1028.2      64.3      8.3   
   05.12.2022 г. 03:30:59      19.4      1010.4      1028.4      65.2      7.9   
   05.12.2022 г. 03:00:58      19.5      1010.5      1028.6      65.0      8.0   
   05.12.2022 г. 02:30:59      19.5      1010.6      1028.7      65.5      7.9   
   05.12.2022 г. 02:00:58      19.5      1010.3      1028.4      65.0      8.3   
   05.12.2022 г. 01:30:59      19.6      1010.4      1028.4      64.9      8.3   
   05.12.2022 г. 01:00:58      19.6      1010.2      1028.2      64.8      8.1   
   05.12.2022 г. 00:30:59      19.7      1010.4      1028.4      64.7      8.3   
   05.12.2022 г. 00:00:58      19.7      1010.4      1028.5      65.0      8.3   
   04.12.2022 г. 23:30:59      19.8      1010.5      1028.5      64.6      8.3   
   04.12.2022 г. 23:00:58      19.8      1010.6      1028.7      64.4      8.3   
   04.12.2022 г. 22:30:58      19.7      1010.7      1028.8      64.8      8.1   
   04.12.2022 г. 22:00:58      19.7      1010.9      1028.9      65.5      8.0   
   04.12.2022 г. 21:30:58      19.8      1010.8      1028.8      64.3      7.9   
   04.12.2022 г. 21:00:58      19.9      1010.9      1028.9      65.2      8.3   
   04.12.2022 г. 20:30:58      20.0      1010.9      1028.9      64.5      8.3   
   04.12.2022 г. 20:00:58      20.1      1010.8      1028.8      63.7      8.1   
   04.12.2022 г. 19:30:58      20.2      1010.7      1028.8      63.6      8.3   
   04.12.2022 г. 19:00:58      20.3      1010.5      1028.5      63.4      8.3   
   04.12.2022 г. 18:30:58      20.3      1010.4      1028.5      62.9      8.0   
   04.12.2022 г. 18:00:59      20.3      1010.3      1028.3      62.2      8.5   
   04.12.2022 г. 17:30:58      20.3      1010.3      1028.3      61.4      8.8   

BaroSL graphic

TEMPE graphic